Time;durP1;ratioP1;P1;durP2;ratioP2;P2;SDS_P1;SDS_P2;PMS_P1;PMS_P2;Temp;Humidity;BMP_temperature;BMP_pressure;BME280_temperature;BME280_humidity;BME280_pressure;Samples;Min_cycle;Max_cycle;Signal;HPM_P1;HPM_P2
2023/09/14 00:01:26;;;;;;;5.62;1.52;;;12.30;99.90;;;;;;7261167;32;20860;-55
2023/09/14 00:05:28;;;;;;;4.50;1.45;;;12.20;99.90;;;;;;7273514;32;20215;-55
2023/09/14 00:09:30;;;;;;;5.85;1.50;;;12.20;99.90;;;;;;7281950;32;20158;-55
2023/09/14 00:13:32;;;;;;;2.15;1.17;;;12.10;99.90;;;;;;7282336;32;20411;-55
2023/09/14 00:17:34;;;;;;;7.93;1.52;;;12.00;99.90;;;;;;7283236;32;20246;-55
2023/09/14 00:21:36;;;;;;;7.68;1.37;;;12.00;99.90;;;;;;7293794;32;20092;-55
2023/09/14 00:25:38;;;;;;;1.80;1.17;;;12.00;99.90;;;;;;7283276;32;20123;-54
2023/09/14 00:29:39;;;;;;;4.70;1.52;;;11.90;99.90;;;;;;7298300;32;20522;-56
2023/09/14 00:33:41;;;;;;;6.82;1.40;;;11.90;99.90;;;;;;7283083;32;20123;-55
2023/09/14 00:37:43;;;;;;;3.33;1.50;;;11.90;99.90;;;;;;7292081;32;20096;-55
2023/09/14 00:41:45;;;;;;;7.60;2.03;;;11.80;99.90;;;;;;7305280;32;20217;-55
2023/09/14 00:45:47;;;;;;;6.45;1.52;;;11.80;99.90;;;;;;7292072;32;20111;-55
2023/09/14 00:49:48;;;;;;;1.77;1.12;;;11.80;99.90;;;;;;7300553;32;20109;-55
2023/09/14 00:53:50;;;;;;;6.97;1.25;;;11.70;99.90;;;;;;7299127;32;20112;-55
2023/09/14 00:57:52;;;;;;;4.75;1.23;;;11.60;99.90;;;;;;7304849;32;20786;-55
2023/09/14 01:01:54;;;;;;;7.47;1.30;;;11.70;99.90;;;;;;7286638;32;20437;-55
2023/09/14 01:05:58;;;;;;;3.30;1.50;;;11.70;99.90;;;;;;7291779;32;20107;-55
2023/09/14 01:10:00;;;;;;;2.72;1.40;;;11.60;99.90;;;;;;7293643;32;20540;-55
2023/09/14 01:14:13;;;;;;;9.60;1.70;;;11.50;99.90;;;;;;7292166;32;20183;-55
2023/09/14 01:18:33;;;;;;;5.85;1.30;;;11.50;99.90;;;;;;7299697;32;20246;-55
2023/09/14 01:22:47;;;;;;;3.25;1.23;;;11.40;99.90;;;;;;7282901;32;20885;-55
2023/09/14 01:26:50;;;;;;;7.00;1.30;;;11.40;99.90;;;;;;7288940;32;20580;-55
2023/09/14 01:30:52;;;;;;;7.03;1.50;;;11.40;99.90;;;;;;7292954;32;20218;-55
2023/09/14 01:34:54;;;;;;;12.50;1.55;;;11.30;99.90;;;;;;7300165;32;20132;-54
2023/09/14 01:38:56;;;;;;;5.15;1.00;;;11.20;99.90;;;;;;7297694;32;20335;-55
2023/09/14 01:42:58;;;;;;;5.25;1.37;;;11.20;99.90;;;;;;7282408;32;20568;-55
2023/09/14 01:47:00;;;;;;;6.07;1.52;;;11.20;99.90;;;;;;7298847;32;20169;-55
2023/09/14 01:51:02;;;;;;;4.82;1.48;;;11.20;99.90;;;;;;7275317;32;20161;-55
2023/09/14 01:55:05;;;;;;;7.37;1.42;;;11.10;99.90;;;;;;7280335;32;20120;-55
2023/09/14 01:59:07;;;;;;;4.47;1.30;;;11.10;99.90;;;;;;7299710;32;20183;-55
2023/09/14 02:03:08;;;;;;;4.50;1.30;;;11.10;99.90;;;;;;7297385;32;20826;-56
2023/09/14 02:07:10;;;;;;;6.15;1.30;;;11.10;99.90;;;;;;7293826;32;20122;-54
2023/09/14 02:11:13;;;;;;;11.85;1.65;;;11.00;99.90;;;;;;7286553;32;20353;-55
2023/09/14 02:15:15;;;;;;;7.35;1.23;;;11.10;99.90;;;;;;7286376;32;20195;-55
2023/09/14 02:19:17;;;;;;;12.00;1.50;;;11.00;99.90;;;;;;7291285;32;20104;-54
2023/09/14 02:23:19;;;;;;;7.95;1.40;;;10.90;99.90;;;;;;7286276;32;20125;-54
2023/09/14 02:27:21;;;;;;;2.90;0.93;;;10.90;99.90;;;;;;7300343;32;20556;-55
2023/09/14 02:31:25;;;;;;;9.40;1.60;;;10.90;99.90;;;;;;7299630;32;20122;-55
2023/09/14 02:35:27;;;;;;;2.65;1.37;;;10.80;99.90;;;;;;7282018;32;20797;-55
2023/09/14 02:39:29;;;;;;;4.28;1.17;;;10.90;99.90;;;;;;7283434;32;20125;-55
2023/09/14 02:43:30;;;;;;;4.93;1.30;;;10.80;99.90;;;;;;7288963;32;20122;-55
2023/09/14 02:47:32;;;;;;;6.62;1.17;;;10.90;99.90;;;;;;7300497;32;20183;-56
2023/09/14 02:51:35;;;;;;;8.48;1.60;;;10.90;99.90;;;;;;7304194;32;20569;-55
2023/09/14 02:55:36;;;;;;;3.37;1.30;;;10.80;99.90;;;;;;7300282;32;20207;-55
2023/09/14 02:59:38;;;;;;;2.95;1.27;;;10.90;99.90;;;;;;7294326;32;20175;-55
2023/09/14 03:03:40;;;;;;;5.90;1.45;;;10.80;99.90;;;;;;7275093;32;20491;-55
2023/09/14 03:07:43;;;;;;;7.65;1.48;;;10.90;99.90;;;;;;7281416;32;20634;-55
2023/09/14 03:11:45;;;;;;;4.07;1.40;;;10.90;99.90;;;;;;7301521;32;20198;-55
2023/09/14 03:15:55;;;;;;;4.53;1.15;;;11.00;99.90;;;;;;7287956;32;20167;-54
2023/09/14 03:19:57;;;;;;;4.00;1.35;;;11.00;99.90;;;;;;7301537;32;20108;-54
2023/09/14 03:23:58;;;;;;;4.00;1.30;;;11.10;99.90;;;;;;7285529;32;20265;-54
2023/09/14 03:28:00;;;;;;;3.22;1.60;;;11.10;99.90;;;;;;7299768;32;20153;-55
2023/09/14 03:32:02;;;;;;;3.50;1.37;;;11.20;99.90;;;;;;7298236;32;20111;-55
2023/09/14 03:36:05;;;;;;;6.53;1.55;;;11.10;99.90;;;;;;7265385;32;20100;-55
2023/09/14 03:40:08;;;;;;;5.43;1.73;;;11.20;99.90;;;;;;7300521;32;20112;-55
2023/09/14 03:44:10;;;;;;;9.55;3.05;;;11.20;99.90;;;;;;7303220;32;20473;-54
2023/09/14 03:48:12;;;;;;;3.05;1.60;;;11.20;99.90;;;;;;7259415;32;20690;-53
2023/09/14 03:52:14;;;;;;;4.60;1.58;;;11.20;99.90;;;;;;7288931;32;20108;-53
2023/09/14 03:56:16;;;;;;;6.47;1.48;;;11.10;99.90;;;;;;7294756;32;20236;-54
2023/09/14 04:00:18;;;;;;;4.07;1.70;;;11.20;99.90;;;;;;7296637;32;20262;-54
2023/09/14 04:04:20;;;;;;;4.85;1.50;;;11.10;99.90;;;;;;7290412;32;20230;-54
2023/09/14 04:08:24;;;;;;;4.25;1.40;;;11.10;99.90;;;;;;7304221;32;20141;-54
2023/09/14 04:12:25;;;;;;;3.42;1.58;;;11.10;99.90;;;;;;7286171;32;20254;-54
2023/09/14 04:16:28;;;;;;;5.68;1.50;;;11.00;99.90;;;;;;7290922;32;20143;-54
2023/09/14 04:20:31;;;;;;;3.08;1.42;;;11.00;99.90;;;;;;7278768;32;20207;-54
2023/09/14 04:24:33;;;;;;;6.55;1.30;;;10.90;99.90;;;;;;7283921;32;20135;-54
2023/09/14 04:28:35;;;;;;;7.68;1.55;;;10.90;99.90;;;;;;7288759;32;20294;-54
2023/09/14 04:32:37;;;;;;;4.00;1.50;;;10.90;99.90;;;;;;7295248;32;20104;-54
2023/09/14 04:36:39;;;;;;;5.18;1.58;;;10.90;99.90;;;;;;7292147;32;20129;-54
2023/09/14 04:40:43;;;;;;;6.70;1.85;;;10.90;99.90;;;;;;7305530;32;20132;-54
2023/09/14 04:44:49;;;;;;;6.62;1.73;;;10.80;99.90;;;;;;7291112;32;20717;-54
2023/09/14 04:48:51;;;;;;;3.00;1.50;;;10.70;99.90;;;;;;7287328;32;20226;-54
2023/09/14 04:52:53;;;;;;;7.25;1.73;;;10.70;99.90;;;;;;7306698;32;20182;-54
2023/09/14 04:56:55;;;;;;;4.40;1.60;;;10.60;99.90;;;;;;7300041;32;20187;-56
2023/09/14 05:00:57;;;;;;;7.65;1.70;;;10.60;99.90;;;;;;7303907;32;20281;-54
2023/09/14 05:05:00;;;;;;;10.32;1.65;;;10.60;99.90;;;;;;7298074;32;20092;-54
2023/09/14 05:09:02;;;;;;;6.05;1.92;;;10.60;99.90;;;;;;7300969;32;20108;-56
2023/09/14 05:13:04;;;;;;;4.37;1.90;;;10.60;99.90;;;;;;7302201;32;20202;-55
2023/09/14 05:17:06;;;;;;;2.87;1.62;;;10.50;99.90;;;;;;7289572;32;20126;-56
2023/09/14 05:21:08;;;;;;;8.23;1.80;;;10.50;99.90;;;;;;7287513;32;20097;-56
2023/09/14 05:25:10;;;;;;;3.50;1.80;;;10.50;99.90;;;;;;7279613;32;20154;-55
2023/09/14 05:29:12;;;;;;;5.37;1.80;;;10.40;99.90;;;;;;7289373;32;20150;-56
2023/09/14 05:33:14;;;;;;;4.90;1.77;;;10.50;99.90;;;;;;7301334;32;20533;-55
2023/09/14 05:37:15;;;;;;;2.92;1.85;;;10.60;99.90;;;;;;7297965;32;20120;-55
2023/09/14 05:41:18;;;;;;;9.05;2.10;;;10.60;99.90;;;;;;7303215;32;20131;-55
2023/09/14 05:45:19;;;;;;;6.47;2.10;;;10.60;99.90;;;;;;7297627;32;20502;-55
2023/09/14 05:49:21;;;;;;;3.50;1.80;;;10.60;99.90;;;;;;7298192;32;20123;-56
2023/09/14 05:53:23;;;;;;;7.00;1.77;;;10.70;99.90;;;;;;7299465;32;20276;-55
2023/09/14 05:57:25;;;;;;;3.65;1.80;;;10.70;99.90;;;;;;7297459;32;20130;-55
2023/09/14 06:01:28;;;;;;;6.62;1.77;;;10.80;99.90;;;;;;7288591;32;20218;-55
2023/09/14 06:05:29;;;;;;;11.43;2.58;;;10.80;99.90;;;;;;7299702;32;20108;-56
2023/09/14 06:09:31;;;;;;;13.55;7.65;;;10.80;99.90;;;;;;7300184;32;20517;-56
2023/09/14 06:13:33;;;;;;;9.13;3.92;;;10.80;99.90;;;;;;7299563;32;20126;-56
2023/09/14 06:17:35;;;;;;;6.75;3.12;;;10.90;99.90;;;;;;7300088;32;20096;-56
2023/09/14 06:21:37;;;;;;;3.75;2.03;;;10.90;99.90;;;;;;7298651;32;20100;-56
2023/09/14 06:25:39;;;;;;;6.97;2.28;;;11.00;99.90;;;;;;7306914;32;20220;-56
2023/09/14 06:29:40;;;;;;;6.05;2.30;;;11.10;99.90;;;;;;7297095;32;20256;-56
2023/09/14 06:33:42;;;;;;;6.55;2.10;;;11.20;99.90;;;;;;7285253;32;20183;-56
2023/09/14 06:37:45;;;;;;;6.05;2.60;;;11.30;99.90;;;;;;7300810;32;20199;-56
2023/09/14 06:41:46;;;;;;;7.22;3.35;;;11.40;99.90;;;;;;7301456;32;20734;-56
2023/09/14 06:45:48;;;;;;;5.22;2.85;;;11.60;99.90;;;;;;7302874;32;20126;-55
2023/09/14 06:49:50;;;;;;;3.90;2.67;;;11.70;99.90;;;;;;7287555;32;20206;-56
2023/09/14 06:53:52;;;;;;;6.60;2.72;;;11.80;99.90;;;;;;7298783;32;20229;-56
2023/09/14 06:57:54;;;;;;;4.53;2.33;;;11.90;99.90;;;;;;7306743;32;20119;-56
2023/09/14 07:01:56;;;;;;;4.75;2.12;;;12.00;99.90;;;;;;7297723;32;20281;-56
2023/09/14 07:05:58;;;;;;;4.60;2.30;;;12.10;99.90;;;;;;7306538;32;20195;-57
2023/09/14 07:10:00;;;;;;;6.65;2.55;;;12.10;99.90;;;;;;7300162;32;20105;-57
2023/09/14 07:14:02;;;;;;;8.57;3.35;;;12.30;99.90;;;;;;7287778;32;20108;-56
2023/09/14 07:18:04;;;;;;;9.38;3.42;;;12.40;99.90;;;;;;7300149;32;20108;-57
2023/09/14 07:22:06;;;;;;;6.43;4.18;;;12.60;99.90;;;;;;7299971;32;20395;-55
2023/09/14 07:26:08;;;;;;;10.35;5.50;;;12.70;99.90;;;;;;7289018;32;20545;-57
2023/09/14 07:30:12;;;;;;;13.05;8.43;;;12.90;99.90;;;;;;7297965;32;20219;-57
2023/09/14 07:34:14;;;;;;;19.20;8.57;;;13.00;99.90;;;;;;7295014;32;20561;-56
2023/09/14 07:38:16;;;;;;;16.92;8.82;;;13.10;99.90;;;;;;7299025;32;20558;-55
2023/09/14 07:42:17;;;;;;;16.77;8.52;;;13.30;99.90;;;;;;7295148;32;20161;-56
2023/09/14 07:46:19;;;;;;;15.02;8.25;;;13.40;99.90;;;;;;7297556;32;20096;-56
2023/09/14 07:50:21;;;;;;;12.77;7.50;;;13.60;99.90;;;;;;7299776;32;20929;-55
2023/09/14 07:54:23;;;;;;;11.80;7.75;;;13.80;99.90;;;;;;7295389;32;20156;-57
2023/09/14 07:58:24;;;;;;;13.73;7.78;;;13.90;99.90;;;;;;7297892;32;20119;-55
2023/09/14 08:02:27;;;;;;;12.13;7.53;;;14.10;99.90;;;;;;7283318;32;20127;-56
2023/09/14 08:06:29;;;;;;;11.88;7.15;;;14.20;99.90;;;;;;7292709;32;20486;-56
2023/09/14 08:10:31;;;;;;;11.25;6.40;;;14.40;99.90;;;;;;7297826;32;20305;-57
2023/09/14 08:14:33;;;;;;;8.50;5.95;;;14.50;99.90;;;;;;7296407;32;20678;-56
2023/09/14 08:18:35;;;;;;;10.02;6.07;;;14.60;99.90;;;;;;7299892;32;20127;-56
2023/09/14 08:22:37;;;;;;;7.95;5.78;;;14.80;99.90;;;;;;7295560;32;20120;-55
2023/09/14 08:26:39;;;;;;;7.87;5.47;;;15.00;99.90;;;;;;7302608;32;20203;-55
2023/09/14 08:30:41;;;;;;;7.62;4.43;;;15.20;99.90;;;;;;7299554;32;20123;-57
2023/09/14 08:34:43;;;;;;;6.50;4.43;;;16.00;99.90;;;;;;7283003;32;20100;-56
2023/09/14 08:38:45;;;;;;;7.95;3.67;;;16.80;99.90;;;;;;7300931;32;20092;-57
2023/09/14 08:42:49;;;;;;;6.12;4.20;;;17.90;99.90;;;;;;7298597;32;20100;-56
2023/09/14 08:46:53;;;;;;;6.15;3.78;;;18.10;99.90;;;;;;7295887;32;20158;-56
2023/09/14 08:50:57;;;;;;;8.25;3.40;;;18.20;99.90;;;;;;7299133;32;20158;-56
2023/09/14 08:55:02;;;;;;;4.70;2.72;;;18.10;99.90;;;;;;7294572;32;20482;-56
2023/09/14 08:59:06;;;;;;;5.60;2.90;;;18.40;99.90;;;;;;7298310;32;20172;-57
2023/09/14 09:03:07;;;;;;;9.98;3.10;;;19.40;99.90;;;;;;7298399;32;20260;-56
2023/09/14 09:07:09;;;;;;;7.18;3.20;;;20.20;99.90;;;;;;7295936;32;20759;-55
2023/09/14 09:11:12;;;;;;;6.55;3.35;;;19.90;99.90;;;;;;7295777;32;20613;-57
2023/09/14 09:15:14;;;;;;;7.12;3.60;;;19.70;99.90;;;;;;7299885;32;20162;-55
2023/09/14 09:19:16;;;;;;;4.37;3.17;;;19.50;99.90;;;;;;7297428;32;20522;-54
2023/09/14 09:23:21;;;;;;;6.82;2.87;;;19.50;99.90;;;;;;7300685;32;20175;-54
2023/09/14 09:27:27;;;;;;;7.87;2.55;;;19.60;99.90;;;;;;7303948;32;20130;-54
2023/09/14 09:31:50;;;;;;;5.70;3.08;;;20.00;99.90;;;;;;7296986;32;20108;-54
2023/09/14 09:35:58;;;;;;;7.35;3.67;;;19.90;99.90;;;;;;7294837;32;20129;-55
2023/09/14 09:40:00;;;;;;;5.55;3.47;;;18.70;99.90;;;;;;7299376;32;20268;-55
2023/09/14 09:44:13;;;;;;;5.57;3.15;;;18.60;99.90;;;;;;7300638;32;20126;-55
2023/09/14 09:48:15;;;;;;;4.22;2.20;;;20.10;99.90;;;;;;7297715;32;20107;-56
2023/09/14 09:52:17;;;;;;;4.97;2.47;;;21.60;99.90;;;;;;7292500;32;20135;-56
2023/09/14 09:56:19;;;;;;;4.12;1.98;;;22.40;99.90;;;;;;7295449;32;20178;-57
2023/09/14 10:00:27;;;;;;;5.78;1.85;;;22.30;99.90;;;;;;7295268;32;20103;-57
2023/09/14 10:04:29;;;;;;;4.70;1.87;;;23.10;99.90;;;;;;7306831;32;20118;-57
2023/09/14 10:08:31;;;;;;;5.40;2.50;;;23.80;99.90;;;;;;7309514;32;20159;-57
2023/09/14 10:12:38;;;;;;;4.15;1.87;;;24.20;99.90;;;;;;7308843;32;20187;-56
2023/09/14 10:16:41;;;;;;;3.80;1.73;;;23.80;99.90;;;;;;7314859;32;20115;-58
2023/09/14 10:20:46;;;;;;;3.35;1.50;;;22.70;99.90;;;;;;7303861;32;20144;-56
2023/09/14 10:24:49;;;;;;;3.72;1.92;;;21.90;99.90;;;;;;7306055;32;20105;-56
2023/09/14 10:28:52;;;;;;;5.97;2.28;;;21.50;99.90;;;;;;7316738;32;20149;-56
2023/09/14 10:32:57;;;;;;;5.18;2.50;;;21.10;99.90;;;;;;7313879;32;20147;-55
2023/09/14 10:36:59;;;;;;;5.00;2.65;;;20.70;99.90;;;;;;7311557;32;20203;-56
2023/09/14 10:41:02;;;;;;;5.68;2.33;;;20.20;99.90;;;;;;7314856;32;20180;-57
2023/09/14 10:45:05;;;;;;;5.00;2.17;;;20.00;99.90;;;;;;7303808;32;20104;-56
2023/09/14 10:49:07;;;;;;;5.30;2.33;;;19.80;99.90;;;;;;7303880;32;20170;-56
2023/09/14 10:53:09;;;;;;;4.50;2.60;;;19.70;99.90;;;;;;7306372;32;20381;-56
2023/09/14 10:57:20;;;;;;;4.80;2.00;;;20.00;99.90;;;;;;7304154;32;20667;-56
2023/09/14 11:01:24;;;;;;;4.45;2.15;;;20.20;99.90;;;;;;7294088;32;20125;-56
2023/09/14 11:05:43;;;;;;;4.57;2.08;;;20.30;99.90;;;;;;7296971;32;20307;-56
2023/09/14 11:10:05;;;;;;;5.12;2.22;;;21.40;99.90;;;;;;7296176;32;20108;-56
2023/09/14 11:14:09;;;;;;;3.55;2.03;;;21.40;99.90;;;;;;7297017;32;20404;-55
2023/09/14 11:18:19;;;;;;;3.78;2.42;;;21.00;99.90;;;;;;7294840;32;20224;-55
2023/09/14 11:22:24;;;;;;;4.25;2.28;;;20.60;99.90;;;;;;7297712;32;20166;-57
2023/09/14 11:26:33;;;;;;;8.07;3.45;;;20.40;99.90;;;;;;7297877;32;20241;-55
2023/09/14 11:30:43;;;;;;;4.62;2.47;;;19.50;99.90;;;;;;7296835;32;20127;-56
2023/09/14 11:34:48;;;;;;;3.08;1.92;;;19.20;99.90;;;;;;7300077;32;20092;-56
2023/09/14 11:38:52;;;;;;;2.80;1.87;;;19.50;99.90;;;;;;7293673;32;20161;-56
2023/09/14 11:43:07;;;;;;;4.40;1.77;;;19.40;99.90;;;;;;7295736;32;20175;-56
2023/09/14 11:47:13;;;;;;;6.57;2.78;;;19.40;99.90;;;;;;7301252;32;20820;-55
2023/09/14 11:51:24;;;;;;;4.03;2.78;;;19.40;99.90;;;;;;7298914;32;20165;-56
2023/09/14 11:55:27;;;;;;;5.78;2.80;;;19.30;99.90;;;;;;7296420;32;20485;-58
2023/09/14 11:59:33;;;;;;;8.10;3.35;;;19.20;99.90;;;;;;7297825;32;20187;-56
2023/09/14 12:03:37;;;;;;;6.12;2.67;;;19.10;99.90;;;;;;7294398;32;20127;-55
2023/09/14 12:07:39;;;;;;;4.05;2.35;;;19.10;99.90;;;;;;7297862;32;20184;-56
2023/09/14 12:11:42;;;;;;;5.82;2.40;;;19.10;99.90;;;;;;7300337;32;20096;-56
2023/09/14 12:15:46;;;;;;;5.78;3.05;;;19.10;99.90;;;;;;7300209;32;20211;-56
2023/09/14 12:19:55;;;;;;;5.32;2.65;;;19.10;99.90;;;;;;7282611;32;20118;-56
2023/09/14 12:23:58;;;;;;;6.47;3.25;;;19.20;99.90;;;;;;7298042;32;20104;-57
2023/09/14 12:28:03;;;;;;;6.75;3.60;;;19.30;99.90;;;;;;7296553;32;20203;-56
2023/09/14 12:32:05;;;;;;;3.50;2.65;;;19.40;99.90;;;;;;7287337;32;20107;-56
2023/09/14 12:36:09;;;;;;;4.10;2.72;;;19.40;99.90;;;;;;7296489;32;20099;-54
2023/09/14 12:40:12;;;;;;;6.80;3.30;;;19.20;99.90;;;;;;7298360;32;20131;-55
2023/09/14 12:44:16;;;;;;;7.47;5.05;;;18.80;99.90;;;;;;7300090;32;20149;-55
2023/09/14 12:48:18;;;;;;;6.82;4.87;;;19.10;99.90;;;;;;7301161;32;20202;-54
2023/09/14 12:52:21;;;;;;;6.37;4.50;;;19.00;99.90;;;;;;7300910;32;20231;-56
2023/09/14 12:56:24;;;;;;;6.93;4.25;;;19.30;99.90;;;;;;7294094;32;20101;-58
2023/09/14 13:00:27;;;;;;;8.43;3.58;;;19.20;99.90;;;;;;7297906;32;20123;-58
2023/09/14 13:04:29;;;;;;;5.47;3.90;;;19.40;99.90;;;;;;7310211;32;20528;-58
2023/09/14 13:08:47;;;;;;;6.05;4.03;;;20.00;99.90;;;;;;7302792;32;20119;-58
2023/09/14 13:12:50;;;;;;;6.20;4.65;;;20.40;99.90;;;;;;7302953;32;20659;-57
2023/09/14 13:16:54;;;;;;;6.60;4.25;;;20.60;99.90;;;;;;7298150;32;20839;-58
2023/09/14 13:21:06;;;;;;;7.05;4.20;;;20.70;99.90;;;;;;7299277;32;20096;-58
2023/09/14 13:25:08;;;;;;;5.60;4.40;;;20.70;99.90;;;;;;7302309;32;20574;-60
2023/09/14 13:29:09;;;;;;;6.75;4.75;;;21.00;99.90;;;;;;7299400;32;20191;-61
2023/09/14 13:33:11;;;;;;;7.68;4.68;;;20.80;99.90;;;;;;7304834;32;20462;-58
2023/09/14 13:37:13;;;;;;;9.05;4.90;;;20.50;99.90;;;;;;7303596;32;20100;-59
2023/09/14 13:41:15;;;;;;;5.72;5.12;;;20.50;99.90;;;;;;7296517;32;20548;-60
2023/09/14 13:45:18;;;;;;;4.78;4.00;;;20.80;99.90;;;;;;7300802;32;20108;-58
2023/09/14 13:49:20;;;;;;;5.18;3.95;;;20.90;99.90;;;;;;7309200;32;20195;-58
2023/09/14 13:53:21;;;;;;;6.05;4.18;;;20.80;99.90;;;;;;7300361;32;20362;-59
2023/09/14 13:57:23;;;;;;;5.00;4.37;;;21.20;99.90;;;;;;7301862;32;20114;-58
2023/09/14 14:01:26;;;;;;;7.12;3.83;;;21.40;99.90;;;;;;7296466;32;20198;-58
2023/09/14 14:05:28;;;;;;;5.50;3.92;;;21.70;99.90;;;;;;7299226;32;20254;-58
2023/09/14 14:09:29;;;;;;;5.45;3.92;;;21.80;99.90;;;;;;7294517;32;20420;-59
2023/09/14 14:13:31;;;;;;;4.70;3.90;;;21.90;99.90;;;;;;7298390;32;20179;-59
2023/09/14 14:17:33;;;;;;;5.40;3.60;;;21.50;99.90;;;;;;7294479;32;20241;-58
2023/09/14 14:21:35;;;;;;;4.93;3.62;;;21.40;99.90;;;;;;7296471;32;20104;-59
2023/09/14 14:25:38;;;;;;;8.95;3.97;;;21.60;99.90;;;;;;7301209;32;20096;-60
2023/09/14 14:29:41;;;;;;;4.60;3.83;;;21.80;99.90;;;;;;7297305;32;20261;-60
2023/09/14 14:33:43;;;;;;;6.35;3.97;;;22.00;99.90;;;;;;7293480;32;20183;-59
2023/09/14 14:37:44;;;;;;;6.05;4.20;;;21.50;99.90;;;;;;7298130;32;20449;-58
2023/09/14 14:41:46;;;;;;;5.03;3.80;;;21.30;99.90;;;;;;7293488;32;20900;-58
2023/09/14 14:45:48;;;;;;;5.07;4.40;;;21.00;99.90;;;;;;7273187;32;20130;-58
2023/09/14 14:49:50;;;;;;;7.20;4.40;;;20.70;99.90;;;;;;7284621;32;20183;-59
2023/09/14 14:53:52;;;;;;;5.43;4.28;;;20.50;99.90;;;;;;7299414;32;20189;-58
2023/09/14 14:57:54;;;;;;;5.53;4.37;;;20.50;99.90;;;;;;7300892;32;20195;-58
2023/09/14 15:01:56;;;;;;;7.40;4.43;;;20.00;99.90;;;;;;7298678;32;20389;-57
2023/09/14 15:06:02;;;;;;;7.68;4.30;;;20.20;99.90;;;;;;7300003;32;21076;-56
2023/09/14 15:10:04;;;;;;;4.87;3.20;;;20.10;99.90;;;;;;7291929;32;20194;-56
2023/09/14 15:14:07;;;;;;;6.30;3.85;;;20.10;99.90;;;;;;7290939;32;20716;-58
2023/09/14 15:18:09;;;;;;;4.60;3.17;;;20.00;99.90;;;;;;7295915;32;20142;-60
2023/09/14 15:22:11;;;;;;;5.12;2.78;;;20.30;99.90;;;;;;7297823;32;20210;-59
2023/09/14 15:26:12;;;;;;;4.75;3.08;;;20.30;99.90;;;;;;7296826;32;20272;-58
2023/09/14 15:30:14;;;;;;;4.68;2.78;;;20.40;99.90;;;;;;7298267;32;20236;-58
2023/09/14 15:34:16;;;;;;;5.15;3.10;;;20.50;99.90;;;;;;7295922;32;20157;-60
2023/09/14 15:38:18;;;;;;;5.65;3.55;;;20.70;99.90;;;;;;7297610;32;20227;-57
2023/09/14 15:42:20;;;;;;;8.07;3.83;;;20.60;99.90;;;;;;7292627;32;20173;-57
2023/09/14 15:46:22;;;;;;;4.85;3.25;;;20.50;99.90;;;;;;7297814;32;20935;-57
2023/09/14 15:50:24;;;;;;;7.85;3.92;;;20.40;99.90;;;;;;7299634;32;20191;-58
2023/09/14 15:54:26;;;;;;;5.60;4.03;;;19.80;99.90;;;;;;7304454;32;20610;-58
2023/09/14 15:58:28;;;;;;;8.73;3.33;;;19.40;99.90;;;;;;7299685;32;20194;-58
2023/09/14 16:02:30;;;;;;;6.30;3.55;;;19.00;99.90;;;;;;7298007;32;20209;-58
2023/09/14 16:06:32;;;;;;;4.90;3.70;;;18.90;99.90;;;;;;7297519;32;20314;-59
2023/09/14 16:10:35;;;;;;;5.45;3.45;;;18.70;99.90;;;;;;7300455;32;20096;-59
2023/09/14 16:14:37;;;;;;;5.03;3.62;;;18.70;99.90;;;;;;7301523;32;20108;-60
2023/09/14 16:18:39;;;;;;;6.00;3.60;;;18.70;99.90;;;;;;7306587;32;20214;-60
2023/09/14 16:22:41;;;;;;;6.03;3.92;;;18.70;99.90;;;;;;7296041;32;20260;-58
2023/09/14 16:26:42;;;;;;;4.82;3.40;;;18.70;99.90;;;;;;7303611;32;20469;-58
2023/09/14 16:30:44;;;;;;;4.40;3.53;;;18.60;99.90;;;;;;7300630;32;20119;-58
2023/09/14 16:34:46;;;;;;;5.35;3.33;;;18.50;99.90;;;;;;7298837;32;20834;-58
2023/09/14 16:38:48;;;;;;;6.35;4.03;;;18.50;99.90;;;;;;7302266;32;20123;-59
2023/09/14 16:42:50;;;;;;;4.32;3.50;;;18.40;99.90;;;;;;7299988;32;21068;-59
2023/09/14 16:46:52;;;;;;;6.40;3.83;;;18.30;99.90;;;;;;7302133;32;20155;-59
2023/09/14 16:50:54;;;;;;;6.07;3.55;;;18.30;99.90;;;;;;7295322;32;20109;-58
2023/09/14 16:54:56;;;;;;;5.12;3.60;;;18.30;99.90;;;;;;7300419;32;20615;-59
2023/09/14 16:58:58;;;;;;;20.45;17.42;;;18.30;99.90;;;;;;7296580;32;20123;-58
2023/09/14 17:02:59;;;;;;;12.90;9.98;;;18.30;99.90;;;;;;7296293;32;20106;-61
2023/09/14 17:07:02;;;;;;;5.75;4.05;;;18.10;99.90;;;;;;7295699;32;20253;-57
2023/09/14 17:11:04;;;;;;;6.68;3.97;;;18.00;99.90;;;;;;7304836;32;20108;-57
2023/09/14 17:15:08;;;;;;;7.70;4.10;;;17.80;99.90;;;;;;7300685;32;20108;-57
2023/09/14 17:19:09;;;;;;;6.45;4.12;;;17.70;99.90;;;;;;7304377;32;20828;-58
2023/09/14 17:23:11;;;;;;;7.12;4.68;;;17.50;99.90;;;;;;7301563;32;20099;-57
2023/09/14 17:27:13;;;;;;;5.65;4.32;;;17.40;99.90;;;;;;7302920;32;20178;-57
2023/09/14 17:31:15;;;;;;;7.10;4.55;;;17.20;99.90;;;;;;7299993;32;20095;-57
2023/09/14 17:35:17;;;;;;;6.70;4.03;;;17.00;99.90;;;;;;7303016;32;20214;-57
2023/09/14 17:39:19;;;;;;;5.55;4.28;;;16.80;99.90;;;;;;7300171;32;20446;-57
2023/09/14 17:43:22;;;;;;;6.37;4.47;;;16.60;99.90;;;;;;7299852;32;20227;-58
2023/09/14 17:47:23;;;;;;;4.97;4.43;;;16.40;99.90;;;;;;7300471;32;20214;-57
2023/09/14 17:51:25;;;;;;;13.52;4.72;;;16.20;99.90;;;;;;7303239;32;20266;-56
2023/09/14 17:55:28;;;;;;;7.80;4.78;;;16.10;99.90;;;;;;7306120;32;20485;-56
2023/09/14 17:59:30;;;;;;;6.37;4.00;;;15.90;99.90;;;;;;7299073;32;20104;-57
2023/09/14 18:03:32;;;;;;;8.30;5.00;;;15.80;99.90;;;;;;7287195;32;20103;-56
2023/09/14 18:07:34;;;;;;;7.25;4.62;;;15.70;99.90;;;;;;7301331;32;20159;-54
2023/09/14 18:11:36;;;;;;;8.02;5.03;;;15.50;99.90;;;;;;7303132;32;20122;-55
2023/09/14 18:15:39;;;;;;;8.38;4.78;;;15.30;99.90;;;;;;7298491;32;20100;-56
2023/09/14 18:19:40;;;;;;;9.05;4.60;;;15.20;99.90;;;;;;7302949;32;20263;-56
2023/09/14 18:23:42;;;;;;;8.63;4.82;;;15.00;99.90;;;;;;7300898;32;20169;-55
2023/09/14 18:27:44;;;;;;;13.23;5.18;;;14.90;99.90;;;;;;7300980;32;20149;-55
2023/09/14 18:31:46;;;;;;;7.18;4.07;;;14.80;99.90;;;;;;7305156;32;20199;-56
2023/09/14 18:35:57;;;;;;;10.20;4.20;;;14.70;99.90;;;;;;7301676;32;20250;-55
2023/09/14 18:39:59;;;;;;;8.50;4.70;;;14.60;99.90;;;;;;7301947;32;20130;-55
2023/09/14 18:44:02;;;;;;;7.22;4.90;;;14.50;99.90;;;;;;7298157;32;20210;-57
2023/09/14 18:48:07;;;;;;;12.93;5.93;;;14.40;99.90;;;;;;7296377;32;20172;-56
2023/09/14 18:52:09;;;;;;;10.45;5.28;;;14.30;99.90;;;;;;7300646;32;20231;-56
2023/09/14 18:56:10;;;;;;;9.40;4.78;;;14.20;99.90;;;;;;7293646;32;20238;-55
2023/09/14 19:00:12;;;;;;;5.60;4.28;;;14.10;99.90;;;;;;7288657;32;20598;-55
2023/09/14 19:04:14;;;;;;;11.65;4.60;;;14.00;99.90;;;;;;7297445;32;20242;-55
2023/09/14 19:08:17;;;;;;;10.13;4.50;;;14.00;99.90;;;;;;7290572;32;20237;-56
2023/09/14 19:12:19;;;;;;;6.65;4.50;;;13.90;99.90;;;;;;7295159;32;20194;-55
2023/09/14 19:16:21;;;;;;;7.80;4.60;;;13.80;99.90;;;;;;7292985;32;22902;-55
2023/09/14 19:20:23;;;;;;;8.40;4.55;;;13.70;99.90;;;;;;7298703;32;20495;-55
2023/09/14 19:24:25;;;;;;;7.45;4.45;;;13.70;99.90;;;;;;7300485;32;20123;-55
2023/09/14 19:28:27;;;;;;;11.07;4.90;;;13.60;99.90;;;;;;7294783;32;20537;-55
2023/09/14 19:32:29;;;;;;;11.85;4.72;;;13.50;99.90;;;;;;7298158;32;20146;-55
2023/09/14 19:36:31;;;;;;;6.45;4.28;;;13.40;99.90;;;;;;7295316;32;20210;-55
2023/09/14 19:40:33;;;;;;;5.68;4.37;;;13.40;99.90;;;;;;7292175;32;20118;-54
2023/09/14 19:44:35;;;;;;;6.43;3.95;;;13.30;99.90;;;;;;7298058;32;20088;-55
2023/09/14 19:48:43;;;;;;;6.55;4.47;;;13.30;99.90;;;;;;7296964;32;20179;-55
2023/09/14 19:52:45;;;;;;;5.70;3.87;;;13.20;99.90;;;;;;7303934;32;20108;-54
2023/09/14 19:56:46;;;;;;;9.57;4.18;;;13.10;99.90;;;;;;7296199;32;20183;-54
2023/09/14 20:00:48;;;;;;;7.12;4.53;;;13.10;99.90;;;;;;7296298;32;20126;-54
2023/09/14 20:04:50;;;;;;;7.80;4.00;;;13.00;99.90;;;;;;7301601;32;20122;-54
2023/09/14 20:08:52;;;;;;;5.93;3.47;;;13.00;99.90;;;;;;7298105;32;20652;-54
2023/09/14 20:12:54;;;;;;;11.02;4.55;;;12.90;99.90;;;;;;7300383;32;20297;-54
2023/09/14 20:16:57;;;;;;;7.53;4.70;;;12.90;99.90;;;;;;7298986;32;20498;-54
2023/09/14 20:20:58;;;;;;;8.13;4.45;;;12.70;99.90;;;;;;7296245;32;20533;-55
2023/09/14 20:25:00;;;;;;;6.60;4.37;;;12.70;99.90;;;;;;7287401;32;20150;-55
2023/09/14 20:29:03;;;;;;;6.85;3.97;;;12.60;99.90;;;;;;7280479;32;20304;-55
2023/09/14 20:33:05;;;;;;;7.93;4.03;;;12.60;99.90;;;;;;7296255;32;20187;-54
2023/09/14 20:37:07;;;;;;;8.73;3.90;;;12.50;99.90;;;;;;7297989;32;20127;-54
2023/09/14 20:41:10;;;;;;;5.80;3.70;;;12.50;99.90;;;;;;7300653;32;20431;-54
2023/09/14 20:45:12;;;;;;;5.18;3.78;;;12.40;99.90;;;;;;7286051;32;20195;-55
2023/09/14 20:49:15;;;;;;;6.87;3.90;;;12.40;99.90;;;;;;7280902;32;20198;-55
2023/09/14 20:53:18;;;;;;;6.25;3.40;;;12.30;99.90;;;;;;7301307;32;20135;-56
2023/09/14 20:57:19;;;;;;;10.27;3.85;;;12.20;99.90;;;;;;7294271;32;20354;-56
2023/09/14 21:01:21;;;;;;;6.62;3.60;;;12.20;99.90;;;;;;7303505;32;20175;-55